Terminal Aerodrome Forecast
Issued by NWS Buffalo, NY

Home | Current Version | Previous Version | Text Only | Print | Product List | Glossary On
Versions: 1 2 3 4 5 6 7 8 9 10 11 12 13 14 15 16 17 18 19 20 21 22 23 24 25 26
057
FTUS41 KBUF 232333
TAFBUF
TAF
KBUF 232333Z 2400/2424 24007KT 5SM BR BKN020 OVC030
     FM240100 22007KT P6SM BKN020
     FM240300 00000KT P6SM BKN015
     FM240600 08004KT 6SM -SHRA OVC007
     FM241200 00000KT 4SM SHRA OVC003
     FM241500 18005KT P6SM OVC015
     FM241700 VRB03KT P6SM BKN035
     FM242000 15004KT P6SM BKN040=

USA.gov is the U.S. government's official web portal to all federal, state and local government web resources and services.